createdAt,value
2023-04-14T00:02:23.264Z,68.00
2023-04-14T00:04:57.961Z,67.70
2023-04-14T00:07:28.913Z,67.40
2023-04-14T00:09:59.681Z,67.10
2023-04-14T00:12:30.264Z,67.10
2023-04-14T00:15:05.131Z,66.90
2023-04-14T00:17:35.581Z,66.50
2023-04-14T00:20:07.671Z,65.50
2023-04-14T00:22:38.590Z,65.00
2023-04-14T00:25:10.968Z,64.60
2023-04-14T00:27:43.385Z,64.60
2023-04-14T00:30:15.657Z,64.90
2023-04-14T00:32:47.387Z,64.80
2023-04-14T00:35:19.447Z,63.70
2023-04-14T00:37:50.173Z,63.70
2023-04-14T00:40:20.780Z,64.00
2023-04-14T00:42:51.227Z,64.20
2023-04-14T00:45:21.823Z,64.20
2023-04-14T00:47:53.198Z,63.00
2023-04-14T00:50:24.164Z,61.00
2023-04-14T00:52:55.311Z,61.20
2023-04-14T03:02:51.411Z,54.70
2023-04-14T03:05:20.937Z,54.40
2023-04-14T03:07:52.232Z,52.60
2023-04-14T03:10:22.170Z,52.20
2023-04-14T03:12:54.008Z,53.70
2023-04-14T03:15:24.072Z,54.00
2023-04-14T03:17:57.734Z,53.90
2023-04-14T03:20:27.982Z,55.40
2023-04-14T03:23:03.462Z,55.70
2023-04-14T03:25:44.505Z,54.70
2023-04-14T03:28:17.652Z,55.00
2023-04-14T03:30:49.620Z,55.30
2023-04-14T03:33:21.661Z,54.80
2023-04-14T03:35:57.480Z,56.20
2023-04-14T03:38:29.907Z,56.30
2023-04-14T03:41:01.644Z,56.50
2023-04-14T03:43:32.779Z,57.00
2023-04-14T03:46:02.665Z,56.70
2023-04-14T03:48:36.984Z,55.60
2023-04-14T03:51:09.535Z,56.30
2023-04-14T03:54:07.106Z,56.10
2023-04-14T03:56:40.153Z,56.40
2023-04-14T03:59:14.164Z,57.00
2023-04-14T04:01:56.046Z,55.50
2023-04-14T07:27:10.946Z,59.50
2023-04-14T07:29:40.309Z,59.90
2023-04-14T07:32:10.452Z,60.20
2023-04-14T07:34:41.400Z,60.60
2023-04-14T07:37:11.619Z,61.00
2023-04-14T07:39:41.439Z,61.10
2023-04-14T07:42:10.785Z,61.50
2023-04-14T07:44:40.219Z,61.60
2023-04-14T07:47:10.621Z,61.70
2023-04-14T07:49:40.244Z,62.00
2023-04-14T07:52:10.817Z,62.40
2023-04-14T07:54:40.340Z,62.60
2023-04-14T07:57:11.654Z,62.80
2023-04-14T07:59:44.356Z,63.10
2023-04-14T08:02:14.312Z,63.60
2023-04-14T08:04:45.135Z,63.90
2023-04-14T08:07:14.491Z,64.10
2023-04-14T08:09:45.009Z,64.40
2023-04-14T08:12:14.481Z,64.50
2023-04-14T08:14:44.299Z,65.00
2023-04-14T08:17:13.698Z,65.40
2023-04-14T08:19:43.656Z,65.70
2023-04-14T08:22:13.496Z,66.10
2023-04-14T08:44:39.204Z,68.00
2023-04-14T08:47:09.400Z,68.30
2023-04-14T08:50:18.680Z,68.50
2023-04-14T08:52:49.842Z,68.80
2023-04-14T08:55:20.906Z,69.00
2023-04-14T08:57:50.925Z,69.40
2023-04-14T09:00:21.186Z,69.80
2023-04-14T09:02:51.394Z,70.10
2023-04-14T09:05:21.279Z,69.80
2023-04-14T09:07:51.865Z,70.10
2023-04-14T09:10:23.964Z,70.10
2023-04-14T09:12:54.222Z,70.20
2023-04-14T09:15:24.734Z,70.40
2023-04-14T09:17:54.124Z,70.50
2023-04-14T09:20:36.525Z,70.90
2023-04-14T09:23:10.121Z,71.00
2023-04-14T09:25:43.950Z,71.10
2023-04-14T09:28:13.429Z,71.20
2023-04-14T09:30:43.668Z,71.50
2023-04-14T09:33:23.623Z,71.40
2023-04-14T09:35:57.458Z,71.90
2023-04-14T09:38:39.907Z,71.60
2023-04-14T09:41:10.072Z,71.70
2023-04-14T09:43:40.201Z,71.60
2023-04-14T09:46:11.742Z,71.80
2023-04-14T09:49:06.367Z,71.90
2023-04-14T09:51:37.049Z,72.00
2023-04-14T09:54:08.290Z,72.10
2023-04-14T09:56:39.347Z,72.20
2023-04-14T09:59:11.585Z,72.40
2023-04-14T10:01:42.058Z,72.80
2023-04-14T10:04:24.422Z,72.60
2023-04-14T10:06:59.234Z,72.80
2023-04-14T10:09:38.155Z,73.20
2023-04-14T10:12:15.353Z,73.30
2023-04-14T10:14:48.125Z,73.30
2023-04-14T10:17:18.437Z,73.30
2023-04-14T10:19:48.281Z,73.60
2023-04-14T10:22:20.584Z,73.70
2023-04-14T10:24:54.269Z,73.70
2023-04-14T10:27:24.337Z,73.70
2023-04-14T10:29:55.159Z,73.80
2023-04-14T10:32:25.693Z,74.30
2023-04-14T10:34:56.912Z,74.40
2023-04-14T10:37:26.983Z,74.60
2023-04-14T10:39:58.356Z,74.80
2023-04-14T10:42:28.290Z,75.20
2023-04-14T11:14:03.457Z,77.00
2023-04-14T11:16:32.990Z,77.30
2023-04-14T11:19:03.382Z,77.20
2023-04-14T11:21:33.098Z,77.30
2023-04-14T11:24:03.490Z,77.30
2023-04-14T11:26:33.105Z,77.50
2023-04-14T11:29:09.700Z,77.40
2023-04-14T11:31:39.463Z,77.30
2023-04-14T11:34:09.193Z,77.40
2023-04-14T11:36:41.251Z,77.30
2023-04-14T11:39:11.034Z,77.10
2023-04-14T11:41:41.252Z,77.00
2023-04-14T11:44:12.474Z,77.30
2023-04-14T11:46:42.315Z,77.20
2023-04-14T11:49:12.123Z,77.10
2023-04-14T11:51:43.031Z,77.30
2023-04-14T11:54:14.283Z,77.20
2023-04-14T11:56:44.299Z,77.60
2023-04-14T11:59:13.699Z,77.70
2023-04-14T12:01:43.056Z,77.40
2023-04-14T12:04:13.949Z,77.20
2023-04-14T12:06:43.409Z,77.40
2023-04-14T12:09:12.733Z,77.40
2023-04-14T12:11:42.228Z,77.50
2023-04-14T12:38:14.649Z,79.40
2023-04-14T12:40:48.984Z,79.30
2023-04-14T12:43:20.719Z,79.30
2023-04-14T12:45:53.028Z,79.30
2023-04-14T12:48:23.380Z,79.60
2023-04-14T12:50:53.282Z,79.50
2023-04-14T12:53:30.563Z,79.50
2023-04-14T12:56:10.473Z,79.00
2023-04-14T12:58:41.190Z,78.60
2023-04-14T13:01:11.758Z,78.50
2023-04-14T13:03:42.235Z,78.60
2023-04-14T13:06:12.853Z,78.70
2023-04-14T13:08:46.481Z,78.70
2023-04-14T13:11:16.750Z,78.90
2023-04-14T13:13:47.782Z,79.10
2023-04-14T13:16:19.782Z,79.60
2023-04-14T13:18:50.773Z,80.30
2023-04-14T13:21:20.320Z,80.30
2023-04-14T13:23:49.747Z,80.50
2023-04-14T13:26:19.088Z,80.80
2023-04-14T13:28:51.354Z,80.80
2023-04-14T13:31:21.211Z,81.00
2023-04-14T13:33:51.007Z,81.30
2023-04-14T13:36:20.467Z,81.30
2023-04-14T13:38:50.308Z,81.20
2023-04-14T13:41:21.158Z,81.00
2023-04-14T13:43:51.040Z,81.10
2023-04-14T13:46:21.581Z,81.10
2023-04-14T13:48:51.172Z,81.00
2023-04-14T13:51:21.052Z,81.00
2023-04-14T13:53:50.829Z,81.00
2023-04-14T13:56:24.347Z,81.20
2023-04-14T13:58:54.256Z,81.20
2023-04-14T14:01:23.740Z,81.60
2023-04-14T14:03:53.260Z,81.50
2023-04-14T14:06:23.435Z,81.50
2023-04-14T14:09:06.885Z,81.50
2023-04-14T14:11:38.111Z,81.50
2023-04-14T14:14:07.732Z,81.60
2023-04-14T14:16:37.526Z,81.40
2023-04-14T14:19:09.751Z,81.70
2023-04-14T14:21:39.498Z,81.90
2023-04-14T14:24:08.877Z,81.60
2023-04-14T14:26:38.342Z,81.30
2023-04-14T14:29:07.751Z,81.00
2023-04-14T14:31:37.128Z,80.80
2023-04-14T14:34:06.719Z,80.40
2023-04-14T14:36:36.463Z,80.10
2023-04-14T14:39:06.236Z,80.10
2023-04-14T14:41:36.156Z,80.20
2023-04-14T14:44:05.742Z,80.20
2023-04-14T14:46:35.790Z,80.10
2023-04-14T14:49:05.181Z,80.30
2023-04-14T14:51:34.510Z,80.60
2023-04-14T14:54:09.936Z,80.70
2023-04-14T14:56:40.393Z,80.80
2023-04-14T14:59:13.122Z,80.80
2023-04-14T15:01:42.866Z,80.70
2023-04-14T15:04:12.367Z,80.70
2023-04-14T15:06:42.036Z,80.70
2023-04-14T15:09:12.230Z,80.40
2023-04-14T15:11:42.617Z,80.10
2023-04-14T15:14:12.702Z,80.20
2023-04-14T15:16:42.180Z,80.40
2023-04-14T15:19:12.098Z,80.50
2023-04-14T15:21:41.465Z,80.50
2023-04-14T15:24:11.769Z,80.50
2023-04-14T15:26:41.135Z,80.20
2023-04-14T15:29:10.631Z,80.00
2023-04-14T15:31:40.533Z,79.80
2023-04-14T15:34:09.930Z,79.80
2023-04-14T15:36:39.265Z,79.70
2023-04-14T15:39:08.701Z,79.80
2023-04-14T15:41:40.152Z,79.90
2023-04-14T15:44:09.927Z,80.20
2023-04-14T15:46:39.717Z,80.10
2023-04-14T15:49:09.487Z,79.90
2023-04-14T15:51:38.954Z,79.90
2023-04-14T15:54:08.446Z,80.10
2023-04-14T15:56:38.256Z,80.30
2023-04-14T15:59:08.137Z,80.20
2023-04-14T16:01:38.211Z,80.30
2023-04-14T16:04:08.644Z,80.30
2023-04-14T16:06:38.219Z,80.40
2023-04-14T16:09:08.068Z,80.60
2023-04-14T16:11:38.192Z,80.80
2023-04-14T16:14:08.173Z,81.00
2023-04-14T16:16:38.171Z,81.40
2023-04-14T16:19:08.387Z,81.30
2023-04-14T16:21:38.166Z,81.20
2023-04-14T16:24:07.988Z,81.40
2023-04-14T16:26:37.385Z,81.50
2023-04-14T16:29:07.291Z,82.00
2023-04-14T16:31:37.750Z,82.00
2023-04-14T16:34:07.114Z,82.10
2023-04-14T16:36:37.584Z,82.10
2023-04-14T16:39:08.862Z,81.80
2023-04-14T16:41:39.295Z,81.90
2023-04-14T16:44:09.079Z,81.80
2023-04-14T16:46:38.542Z,81.60
2023-04-14T16:49:11.889Z,81.60
2023-04-14T16:51:41.344Z,81.70
2023-04-14T16:54:10.833Z,81.50
2023-04-14T16:56:40.276Z,81.20
2023-04-14T16:59:10.569Z,81.00
2023-04-14T17:01:40.055Z,81.10
2023-04-14T17:04:10.190Z,81.30
2023-04-14T17:06:39.969Z,81.30
2023-04-14T17:09:09.703Z,81.20
2023-04-14T17:11:39.123Z,81.20
2023-04-14T17:14:09.749Z,81.50
2023-04-14T17:16:39.724Z,81.50
2023-04-14T17:19:09.130Z,81.80
2023-04-14T17:21:40.643Z,82.10
2023-04-14T17:24:11.804Z,82.40
2023-04-14T17:26:42.262Z,82.40
2023-04-14T17:29:12.905Z,82.70
2023-04-14T17:31:44.109Z,82.70
2023-04-14T17:34:14.477Z,82.90
2023-04-14T17:36:43.924Z,83.20
2023-04-14T17:39:13.419Z,83.60
2023-04-14T17:41:42.895Z,84.30
2023-04-14T17:44:12.694Z,84.70
2023-04-14T17:46:43.059Z,84.70
2023-04-14T17:49:12.825Z,84.60
2023-04-14T17:51:42.209Z,84.50
2023-04-14T17:54:11.691Z,84.20
2023-04-14T17:56:41.367Z,84.10
2023-04-14T17:59:11.175Z,83.90
2023-04-14T18:01:41.990Z,83.70
2023-04-14T18:04:11.796Z,83.60
2023-04-14T18:06:41.181Z,83.40
2023-04-14T18:09:10.971Z,83.40
2023-04-14T18:11:41.490Z,83.30
2023-04-14T18:14:11.270Z,83.10
2023-04-14T18:16:40.663Z,82.70
2023-04-14T18:19:11.133Z,82.60
2023-04-14T18:21:43.196Z,83.00
2023-04-14T18:26:47.998Z,83.10
2023-04-14T18:29:17.477Z,83.00
2023-04-14T18:31:47.193Z,82.70
2023-04-14T18:34:18.469Z,82.60
2023-04-14T18:36:47.957Z,82.60
2023-04-14T18:39:19.184Z,82.50
2023-04-14T18:41:48.728Z,82.80
2023-04-14T18:44:18.647Z,82.60
2023-04-14T18:46:49.036Z,82.80
2023-04-14T18:49:20.236Z,82.80
2023-04-14T18:51:49.557Z,82.50
2023-04-14T18:54:19.168Z,82.20
2023-04-14T18:56:48.689Z,82.30
2023-04-14T18:59:19.206Z,82.60
2023-04-14T19:01:48.663Z,82.60
2023-04-14T19:04:18.517Z,82.50
2023-04-14T19:06:49.688Z,82.70
2023-04-14T19:09:19.524Z,82.70
2023-04-14T19:11:49.522Z,83.00
2023-04-14T19:14:19.409Z,83.00
2023-04-14T19:16:48.768Z,82.90
2023-04-14T19:40:14.897Z,84.10
2023-04-14T19:42:44.419Z,84.50
2023-04-14T19:45:13.835Z,84.40
2023-04-14T19:47:43.242Z,84.40
2023-04-14T19:50:13.071Z,84.30
2023-04-14T19:52:42.834Z,84.10
2023-04-14T19:55:12.810Z,83.70
2023-04-14T19:57:42.659Z,83.30
2023-04-14T20:00:14.142Z,83.20
2023-04-14T20:02:44.156Z,83.00
2023-04-14T20:05:14.719Z,82.70
2023-04-14T20:07:44.455Z,82.40
2023-04-14T20:10:14.192Z,82.20
2023-04-14T20:12:45.243Z,82.00
2023-04-14T20:15:15.134Z,82.10
2023-04-14T20:17:44.961Z,82.20
2023-04-14T20:20:15.242Z,82.20
2023-04-14T20:22:44.625Z,82.10
2023-04-14T20:25:15.034Z,82.20
2023-04-14T20:27:45.506Z,82.40
2023-04-14T20:30:14.960Z,82.60
2023-04-14T20:32:44.767Z,82.70
2023-04-14T20:35:14.143Z,82.70
2023-04-14T20:37:44.275Z,82.90
2023-04-14T20:40:13.733Z,83.00
2023-04-14T20:42:45.023Z,83.30
2023-04-14T20:45:15.507Z,83.60
2023-04-14T20:47:46.118Z,83.90
2023-04-14T20:50:15.539Z,84.30
2023-04-14T20:52:46.287Z,84.40
2023-04-14T20:55:15.678Z,84.30
2023-04-14T20:57:45.233Z,84.60
2023-04-14T21:00:19.630Z,84.60
2023-04-14T21:02:50.190Z,84.80
2023-04-14T21:05:22.774Z,84.70
2023-04-14T21:07:52.095Z,84.70
2023-04-14T21:10:21.530Z,84.80
2023-04-14T21:15:27.212Z,84.80
2023-04-14T21:15:56.109Z,84.80
2023-04-14T21:18:26.172Z,84.80
2023-04-14T23:10:27.762Z,78.60
2023-04-14T23:12:57.149Z,78.70
2023-04-14T23:15:26.472Z,78.50
2023-04-14T23:17:56.096Z,78.00
2023-04-14T23:20:25.942Z,77.90
2023-04-14T23:22:56.507Z,77.20
2023-04-14T23:25:25.883Z,76.00
2023-04-14T23:27:55.206Z,75.30
2023-04-14T23:30:24.684Z,74.80
2023-04-14T23:32:54.062Z,74.90
2023-04-14T23:35:24.477Z,74.40
2023-04-14T23:37:53.948Z,73.60
2023-04-14T23:40:24.168Z,72.80
2023-04-14T23:42:53.499Z,73.50
2023-04-14T23:45:22.966Z,73.20
2023-04-14T23:47:52.399Z,73.00
2023-04-14T23:50:22.636Z,72.90
2023-04-14T23:53:12.175Z,72.30
2023-04-14T23:55:42.581Z,72.00
2023-04-14T23:58:12.707Z,71.70
